createdAt,value
2023-05-12T00:00:59.516Z,80.80
2023-05-12T00:03:26.656Z,80.80
2023-05-12T00:05:54.074Z,80.90
2023-05-12T00:08:21.011Z,80.80
2023-05-12T00:10:47.866Z,80.80
2023-05-12T00:13:14.949Z,80.90
2023-05-12T00:15:41.861Z,80.80
2023-05-12T00:18:08.747Z,81.00
2023-05-12T00:20:35.728Z,80.90
2023-05-12T00:23:02.845Z,80.90
2023-05-12T00:25:29.885Z,81.30
2023-05-12T00:27:57.068Z,81.00
2023-05-12T00:30:23.863Z,81.00
2023-05-12T00:32:51.111Z,81.00
2023-05-12T00:35:18.136Z,81.00
2023-05-12T00:37:45.138Z,81.10
2023-05-12T00:40:12.485Z,81.20
2023-05-12T00:42:39.363Z,81.10
2023-05-12T00:45:07.608Z,81.20
2023-05-12T00:47:36.031Z,81.30
2023-05-12T00:50:04.048Z,81.30
2023-05-12T00:52:31.506Z,81.40
2023-05-12T00:55:00.463Z,81.50
2023-05-12T00:57:30.067Z,81.50
2023-05-12T00:59:57.128Z,81.60
2023-05-12T01:02:24.100Z,81.50
2023-05-12T01:04:51.630Z,81.50
2023-05-12T01:07:22.358Z,81.50
2023-05-12T01:09:53.793Z,81.50
2023-05-12T01:12:21.566Z,81.50
2023-05-12T01:14:49.477Z,81.60
2023-05-12T01:17:21.218Z,81.60
2023-05-12T01:19:51.990Z,81.60
2023-05-12T01:22:19.219Z,81.70
2023-05-12T01:24:59.125Z,81.80
2023-05-12T01:27:27.507Z,81.80
2023-05-12T01:29:57.932Z,81.90
2023-05-12T01:32:25.210Z,81.80
2023-05-12T01:34:52.328Z,81.90
2023-05-12T01:37:19.432Z,81.90
2023-05-12T01:39:46.269Z,82.00
2023-05-12T01:42:13.278Z,82.10
2023-05-12T01:44:40.500Z,82.00
2023-05-12T01:47:10.028Z,82.10
2023-05-12T01:49:37.479Z,82.10
2023-05-12T01:52:04.738Z,82.20
2023-05-12T01:54:31.570Z,82.20
2023-05-12T01:56:58.424Z,82.40
2023-05-12T01:59:25.359Z,82.40
2023-05-12T02:01:52.513Z,82.40
2023-05-12T02:04:19.406Z,82.40
2023-05-12T02:06:46.364Z,82.40
2023-05-12T02:09:13.603Z,82.50
2023-05-12T02:11:40.445Z,82.60
2023-05-12T02:14:07.555Z,82.70
2023-05-12T02:16:34.419Z,82.70
2023-05-12T02:19:01.517Z,83.30
2023-05-12T02:21:28.379Z,82.80
2023-05-12T02:23:56.441Z,83.40
2023-05-12T02:26:23.356Z,82.80
2023-05-12T02:28:50.302Z,82.90
2023-05-12T02:31:17.528Z,82.90
2023-05-12T02:33:44.417Z,82.90
2023-05-12T02:36:11.281Z,82.90
2023-05-12T02:38:39.992Z,83.50
2023-05-12T02:41:08.037Z,82.90
2023-05-12T02:43:34.846Z,83.10
2023-05-12T02:46:04.193Z,83.10
2023-05-12T02:48:32.057Z,83.10
2023-05-12T02:50:59.376Z,83.10
2023-05-12T02:53:27.890Z,83.30
2023-05-12T02:55:54.736Z,83.20
2023-05-12T02:58:23.019Z,83.30
2023-05-12T03:00:59.847Z,83.30
2023-05-12T03:03:33.976Z,83.20
2023-05-12T03:06:00.904Z,83.30
2023-05-12T03:08:27.997Z,83.30
2023-05-12T03:10:55.044Z,83.30
2023-05-12T03:13:22.359Z,83.30
2023-05-12T03:15:49.237Z,83.30
2023-05-12T03:18:16.027Z,83.40
2023-05-12T03:20:42.922Z,83.50
2023-05-12T03:23:09.715Z,83.60
2023-05-12T03:25:36.890Z,83.70
2023-05-12T03:28:05.506Z,83.60
2023-05-12T03:30:33.304Z,83.70
2023-05-12T03:33:00.230Z,83.70
2023-05-12T03:35:27.148Z,83.80
2023-05-12T03:37:54.328Z,83.80
2023-05-12T03:40:21.703Z,83.80
2023-05-12T03:42:48.812Z,83.80
2023-05-12T03:45:15.812Z,83.80
2023-05-12T03:47:43.173Z,83.90
2023-05-12T03:50:10.329Z,83.80
2023-05-12T03:52:38.602Z,83.80
2023-05-12T03:55:07.096Z,83.90
2023-05-12T03:57:36.481Z,83.90
2023-05-12T04:00:07.341Z,84.10
2023-05-12T04:02:34.226Z,84.10
2023-05-12T04:05:01.218Z,84.20
2023-05-12T04:07:28.530Z,84.10
2023-05-12T04:09:55.853Z,84.20
2023-05-12T04:12:23.876Z,84.20
2023-05-12T04:14:51.141Z,84.30
2023-05-12T04:17:19.366Z,84.30
2023-05-12T04:19:46.790Z,84.40
2023-05-12T04:22:13.563Z,84.40
2023-05-12T04:24:40.472Z,84.50
2023-05-12T04:27:07.495Z,84.50
2023-05-12T04:29:34.247Z,84.40
2023-05-12T04:32:01.147Z,84.50
2023-05-12T04:34:28.078Z,84.50
2023-05-12T04:36:54.891Z,84.60
2023-05-12T04:39:21.687Z,84.70
2023-05-12T04:41:48.522Z,84.70
2023-05-12T04:44:15.663Z,84.80
2023-05-12T04:46:43.431Z,84.80
2023-05-12T04:49:10.993Z,84.70
2023-05-12T04:51:42.312Z,84.80
2023-05-12T04:54:12.339Z,84.90
2023-05-12T04:56:39.221Z,85.00
2023-05-12T04:59:06.652Z,85.00
2023-05-12T05:01:33.552Z,85.00
2023-05-12T05:04:00.605Z,85.00
2023-05-12T05:06:28.140Z,85.00
2023-05-12T05:08:55.982Z,85.20
2023-05-12T05:11:23.800Z,85.20
2023-05-12T05:13:51.081Z,85.30
2023-05-12T05:16:18.036Z,85.40
2023-05-12T05:18:47.915Z,85.40
2023-05-12T05:21:15.162Z,85.40
2023-05-12T05:23:42.796Z,85.60
2023-05-12T05:26:09.713Z,85.60
2023-05-12T05:28:37.350Z,85.60
2023-05-12T05:31:04.455Z,85.70
2023-05-12T05:33:32.017Z,85.70
2023-05-12T05:35:59.526Z,85.70
2023-05-12T05:38:26.366Z,85.80
2023-05-12T05:40:54.475Z,85.80
2023-05-12T05:43:21.553Z,85.80
2023-05-12T05:45:50.006Z,85.90
2023-05-12T05:48:17.780Z,85.90
2023-05-12T05:50:45.013Z,85.90
2023-05-12T05:53:11.787Z,85.90
2023-05-12T05:55:38.619Z,85.90
2023-05-12T05:58:05.687Z,86.00
2023-05-12T06:00:32.534Z,86.10
2023-05-12T06:02:59.409Z,86.20
2023-05-12T06:05:26.415Z,86.20
2023-05-12T06:07:53.257Z,86.20
2023-05-12T06:10:20.052Z,86.30
2023-05-12T06:12:47.397Z,86.50
2023-05-12T06:15:14.275Z,86.50
2023-05-12T06:17:42.152Z,86.60
2023-05-12T06:20:09.950Z,86.50
2023-05-12T06:22:36.754Z,86.60
2023-05-12T06:25:03.930Z,86.70
2023-05-12T06:27:30.943Z,86.80
2023-05-12T06:29:57.842Z,86.70
2023-05-12T06:32:24.895Z,86.80
2023-05-12T06:34:51.856Z,86.80
2023-05-12T06:37:18.720Z,86.80
2023-05-12T06:39:45.491Z,87.00
2023-05-12T06:42:12.845Z,87.10
2023-05-12T06:44:41.864Z,87.10
2023-05-12T06:47:09.480Z,87.00
2023-05-12T06:49:37.368Z,87.00
2023-05-12T06:52:05.884Z,87.10
2023-05-12T06:54:33.108Z,87.10
2023-05-12T06:57:00.050Z,87.10
2023-05-12T06:59:27.020Z,87.10
2023-05-12T07:01:54.043Z,87.20
2023-05-12T07:04:21.660Z,87.20
2023-05-12T07:06:48.633Z,87.10
2023-05-12T07:09:15.503Z,87.00
2023-05-12T07:11:42.312Z,87.10
2023-05-12T07:14:09.164Z,87.20
2023-05-12T07:16:36.406Z,87.30
2023-05-12T07:19:03.356Z,87.40
2023-05-12T07:21:30.671Z,87.40
2023-05-12T07:23:57.452Z,87.50
